Time;durP1;ratioP1;P1;durP2;ratioP2;P2;SDS_P1;SDS_P2;PMS_P1;PMS_P2;Temp;Humidity;BMP_temperature;BMP_pressure;BME280_temperature;BME280_humidity;BME280_pressure;Samples;Min_cycle;Max_cycle;Signal;HPM_P1;HPM_P2
2023/03/16 00:01:41;;;;;;;12.50;6.00;;;4.00;99.90;;;;;;5028148;28;20527;-65
2023/03/16 00:04:06;;;;;;;10.33;5.40;;;4.10;99.90;;;;;;5030667;28;20128;-65
2023/03/16 00:06:32;;;;;;;10.37;5.73;;;4.00;99.90;;;;;;5030777;28;20056;-65
2023/03/16 00:08:57;;;;;;;12.93;6.33;;;3.90;99.90;;;;;;5029444;28;20036;-65
2023/03/16 00:11:26;;;;;;;11.53;6.10;;;3.80;99.90;;;;;;5030636;28;20367;-66
2023/03/16 00:13:51;;;;;;;14.70;7.00;;;3.80;99.90;;;;;;5030349;28;20501;-64
2023/03/16 00:16:17;;;;;;;14.03;6.73;;;3.80;99.90;;;;;;5030693;28;20036;-66
2023/03/16 00:18:43;;;;;;;14.23;7.37;;;3.70;99.90;;;;;;5030379;28;20484;-66
2023/03/16 00:21:09;;;;;;;10.57;6.15;;;3.70;99.90;;;;;;5012454;28;20605;-65
2023/03/16 00:23:35;;;;;;;13.88;5.90;;;3.70;99.90;;;;;;5027838;28;20026;-65
2023/03/16 00:26:06;;;;;;;12.00;4.80;;;3.70;99.90;;;;;;5030650;28;20040;-64
2023/03/16 00:28:35;;;;;;;13.00;5.97;;;3.70;99.90;;;;;;5030408;28;20033;-65
2023/03/16 00:31:05;;;;;;;11.00;5.25;;;3.60;99.90;;;;;;5030160;28;20397;-65
2023/03/16 00:33:34;;;;;;;13.50;5.78;;;3.50;99.90;;;;;;5030706;28;20030;-66
2023/03/16 00:36:01;;;;;;;12.35;5.70;;;3.60;99.90;;;;;;5030573;28;20037;-65
2023/03/16 00:38:31;;;;;;;16.35;5.53;;;3.50;99.90;;;;;;5029893;28;20076;-66
2023/03/16 00:40:57;;;;;;;15.05;5.50;;;3.50;99.90;;;;;;5016109;28;20025;-66
2023/03/16 00:43:26;;;;;;;13.10;5.53;;;3.50;99.90;;;;;;5019149;28;20022;-65
2023/03/16 00:45:57;;;;;;;10.88;5.93;;;3.50;99.90;;;;;;5024691;28;20546;-65
2023/03/16 00:48:23;;;;;;;14.05;5.70;;;3.40;99.90;;;;;;5027927;28;20500;-65
2023/03/16 00:50:48;;;;;;;12.23;6.00;;;3.50;99.90;;;;;;5029871;28;20029;-66
2023/03/16 00:53:14;;;;;;;23.97;6.23;;;3.50;99.90;;;;;;5029909;28;20033;-66
2023/03/16 00:55:40;;;;;;;10.40;5.87;;;3.50;99.90;;;;;;5030049;28;20272;-65
2023/03/16 00:58:06;;;;;;;10.57;6.22;;;3.50;99.90;;;;;;5029926;28;20041;-64
2023/03/16 01:00:32;;;;;;;12.60;5.57;;;3.60;99.90;;;;;;5030010;28;20059;-66
2023/03/16 01:02:58;;;;;;;12.70;5.82;;;3.60;99.90;;;;;;5029903;28;20037;-63
2023/03/16 01:05:23;;;;;;;10.13;5.70;;;3.40;99.90;;;;;;5028114;28;20029;-66
2023/03/16 01:07:51;;;;;;;15.13;5.80;;;3.50;99.90;;;;;;5013267;28;20505;-63
2023/03/16 01:10:16;;;;;;;9.82;5.50;;;3.50;99.90;;;;;;5030068;28;20505;-65
2023/03/16 01:12:44;;;;;;;14.57;6.63;;;3.40;99.90;;;;;;5028166;28;20034;-65
2023/03/16 01:15:10;;;;;;;12.65;5.47;;;3.40;99.90;;;;;;5028903;28;20100;-65
2023/03/16 01:17:35;;;;;;;11.77;5.18;;;3.40;99.90;;;;;;5029858;28;20120;-67
2023/03/16 01:20:02;;;;;;;12.70;5.90;;;3.40;99.90;;;;;;5029792;28;20037;-66
2023/03/16 01:22:28;;;;;;;11.50;4.75;;;3.20;99.90;;;;;;5029575;28;20020;-64
2023/03/16 01:24:54;;;;;;;12.57;6.00;;;3.30;99.90;;;;;;5028662;28;20033;-66
2023/03/16 01:27:19;;;;;;;14.98;5.57;;;3.30;99.90;;;;;;5012897;28;20034;-63
2023/03/16 01:29:45;;;;;;;10.60;5.57;;;3.30;99.90;;;;;;5028792;28;20123;-65
2023/03/16 01:32:11;;;;;;;18.77;5.53;;;3.20;99.90;;;;;;5029446;28;20033;-65
2023/03/16 01:34:37;;;;;;;9.30;5.22;;;3.30;99.90;;;;;;5029214;28;20037;-65
2023/03/16 01:37:03;;;;;;;14.40;6.03;;;3.30;99.90;;;;;;5027996;28;20036;-64
2023/03/16 01:39:28;;;;;;;14.05;5.85;;;3.30;99.90;;;;;;5028083;28;20359;-63
2023/03/16 01:41:54;;;;;;;13.93;5.72;;;3.30;99.90;;;;;;5028796;28;20037;-64
2023/03/16 01:44:27;;;;;;;8.83;5.20;;;3.30;99.90;;;;;;5027676;28;20021;-65
2023/03/16 01:46:52;;;;;;;12.20;5.97;;;3.30;99.90;;;;;;5029081;28;20501;-66
2023/03/16 01:49:36;;;;;;;11.77;6.05;;;3.30;99.90;;;;;;5028864;28;20030;-64
2023/03/16 01:52:13;;;;;;;12.13;6.22;;;3.20;99.90;;;;;;5028718;28;20045;-65
2023/03/16 01:54:45;;;;;;;12.43;5.53;;;3.20;99.90;;;;;;5028778;28;20021;-64
2023/03/16 01:57:24;;;;;;;16.45;6.45;;;3.10;99.90;;;;;;5028871;28;20049;-66
2023/03/16 01:59:56;;;;;;;12.93;6.18;;;3.10;99.90;;;;;;5028191;28;20022;-65
2023/03/16 02:02:25;;;;;;;20.30;7.75;;;3.20;99.90;;;;;;5028845;28;20076;-65
2023/03/16 02:05:11;;;;;;;12.15;6.00;;;3.10;99.90;;;;;;5028538;28;20188;-65
2023/03/16 02:07:41;;;;;;;17.00;5.82;;;3.10;99.90;;;;;;5028739;28;20061;-66
2023/03/16 02:10:09;;;;;;;15.45;6.53;;;3.20;99.90;;;;;;5028746;28;20033;-67
2023/03/16 02:12:35;;;;;;;14.95;6.75;;;3.10;99.90;;;;;;5028803;28;20045;-65
2023/03/16 02:15:01;;;;;;;16.02;6.85;;;3.10;99.90;;;;;;5029154;28;20138;-65
2023/03/16 02:17:29;;;;;;;14.38;6.38;;;3.10;99.90;;;;;;5028185;28;20083;-65
2023/03/16 02:20:31;;;;;;;13.82;6.03;;;3.10;99.90;;;;;;5027840;28;20037;-63
2023/03/16 02:22:57;;;;;;;10.13;5.65;;;3.10;99.90;;;;;;5027712;28;20517;-67
2023/03/16 02:25:27;;;;;;;11.88;5.05;;;3.10;99.90;;;;;;5027471;28;20049;-66
2023/03/16 02:28:07;;;;;;;12.73;5.13;;;3.10;99.90;;;;;;5028157;28;20041;-65
2023/03/16 02:30:33;;;;;;;12.73;4.60;;;3.10;99.90;;;;;;5027646;28;20133;-65
2023/03/16 02:33:00;;;;;;;8.45;5.20;;;3.10;99.90;;;;;;5028215;28;20049;-65
2023/03/16 02:35:26;;;;;;;10.23;4.38;;;2.90;99.90;;;;;;5028047;28;20064;-65
2023/03/16 02:37:51;;;;;;;8.82;4.68;;;2.90;99.90;;;;;;5026779;28;20069;-65
2023/03/16 02:40:22;;;;;;;10.60;4.83;;;2.80;99.90;;;;;;5026170;28;20044;-64
2023/03/16 02:43:01;;;;;;;10.65;5.25;;;2.70;99.90;;;;;;5027168;28;20021;-65
2023/03/16 02:45:37;;;;;;;11.90;5.15;;;2.80;99.90;;;;;;5028083;28;20490;-65
2023/03/16 02:48:13;;;;;;;8.45;4.10;;;2.90;99.90;;;;;;5027911;28;20025;-65
2023/03/16 02:50:46;;;;;;;8.95;4.65;;;3.00;99.90;;;;;;5027898;28;20143;-65
2023/03/16 02:53:12;;;;;;;8.63;4.53;;;3.00;99.90;;;;;;5027355;28;20057;-65
2023/03/16 02:55:38;;;;;;;12.68;5.45;;;3.00;99.90;;;;;;5026669;28;20203;-65
2023/03/16 02:58:03;;;;;;;13.63;4.73;;;3.00;99.90;;;;;;5024086;28;20124;-65
2023/03/16 03:00:29;;;;;;;12.30;5.07;;;3.10;99.90;;;;;;5027656;28;20060;-64
2023/03/16 03:02:55;;;;;;;8.07;4.77;;;3.00;99.90;;;;;;5027646;28;20029;-64
2023/03/16 03:05:20;;;;;;;8.07;5.30;;;2.90;99.90;;;;;;5027698;28;20292;-65
2023/03/16 03:07:46;;;;;;;9.83;4.53;;;2.90;99.90;;;;;;5027455;28;20485;-65
2023/03/16 03:10:12;;;;;;;12.10;4.68;;;2.90;99.90;;;;;;5027097;28;20104;-65
2023/03/16 03:12:37;;;;;;;10.07;4.80;;;2.90;99.90;;;;;;5027146;28;20087;-64
2023/03/16 03:15:03;;;;;;;10.63;5.00;;;2.90;99.90;;;;;;5027733;28;20025;-65
2023/03/16 03:17:29;;;;;;;11.13;5.32;;;2.90;99.90;;;;;;5027411;28;20418;-65
2023/03/16 03:19:58;;;;;;;10.30;5.30;;;2.80;99.90;;;;;;5027670;28;20057;-65
2023/03/16 03:22:25;;;;;;;10.88;5.28;;;2.70;99.90;;;;;;5027446;28;20501;-64
2023/03/16 03:24:51;;;;;;;;;;;2.70;99.90;;;;;;5027083;28;20120;-64
2023/03/16 03:27:17;;;;;;;11.85;5.00;;;2.60;99.90;;;;;;5027470;28;19909;-65
2023/03/16 03:29:43;;;;;;;12.93;4.73;;;2.60;99.90;;;;;;5027433;28;20048;-66
2023/03/16 03:32:09;;;;;;;10.15;4.70;;;2.60;99.90;;;;;;5026998;28;20033;-64
2023/03/16 03:34:35;;;;;;;;;;;2.60;99.90;;;;;;5027124;28;20172;-64
2023/03/16 03:37:01;;;;;;;11.10;4.65;;;2.60;99.90;;;;;;5028310;28;20371;-65
2023/03/16 03:39:26;;;;;;;12.00;5.67;;;2.60;99.90;;;;;;5031023;28;20021;-65
2023/03/16 03:41:55;;;;;;;14.50;5.47;;;2.70;99.90;;;;;;5031210;28;20068;-64
2023/03/16 03:44:21;;;;;;;9.93;5.10;;;2.70;99.90;;;;;;5031231;28;20025;-63
2023/03/16 03:46:47;;;;;;;;;;;2.60;99.90;;;;;;5031611;28;20071;-65
2023/03/16 03:49:14;;;;;;;14.18;6.53;;;2.70;99.90;;;;;;5030882;28;20347;-66
2023/03/16 03:51:42;;;;;;;11.98;6.22;;;2.60;99.90;;;;;;5031465;28;20040;-65
2023/03/16 03:54:08;;;;;;;14.23;6.05;;;2.60;99.90;;;;;;5031684;28;20121;-63
2023/03/16 03:56:34;;;;;;;14.00;5.65;;;2.60;99.90;;;;;;5030531;28;20191;-66
2023/03/16 03:58:59;;;;;;;11.20;5.30;;;2.50;99.90;;;;;;5030398;28;20049;-65
2023/03/16 04:01:25;;;;;;;12.33;6.00;;;2.50;99.90;;;;;;5030548;28;20257;-65
2023/03/16 04:03:50;;;;;;;10.07;5.27;;;2.50;99.90;;;;;;5030690;28;20029;-66
2023/03/16 04:06:16;;;;;;;11.63;5.27;;;2.50;99.90;;;;;;5030725;28;20493;-65
2023/03/16 04:08:42;;;;;;;11.43;5.40;;;2.50;99.90;;;;;;5030439;28;20029;-65
2023/03/16 04:11:08;;;;;;;;;;;2.50;99.90;;;;;;5031465;28;20025;-66
2023/03/16 04:13:34;;;;;;;9.85;5.15;;;2.50;99.90;;;;;;5030637;28;19909;-65
2023/03/16 04:16:03;;;;;;;13.60;5.60;;;2.50;99.90;;;;;;5030544;28;20272;-65
2023/03/16 04:18:37;;;;;;;14.02;6.32;;;2.50;99.90;;;;;;5030314;28;20074;-66
2023/03/16 04:21:04;;;;;;;9.05;4.70;;;2.60;99.90;;;;;;5030743;28;20053;-65
2023/03/16 04:23:32;;;;;;;10.52;5.63;;;2.60;99.90;;;;;;5030349;28;20041;-66
2023/03/16 04:25:58;;;;;;;12.15;5.00;;;2.70;99.90;;;;;;5030158;28;20033;-66
2023/03/16 04:28:25;;;;;;;12.55;4.85;;;2.60;99.90;;;;;;5029144;28;20033;-65
2023/03/16 04:30:53;;;;;;;12.88;4.95;;;2.60;99.90;;;;;;5029816;28;20044;-65
2023/03/16 04:33:20;;;;;;;13.27;5.20;;;2.60;99.90;;;;;;5026340;28;20103;-64
2023/03/16 04:35:46;;;;;;;10.73;4.53;;;2.60;99.90;;;;;;5030123;28;20032;-65
2023/03/16 04:38:12;;;;;;;9.20;4.45;;;2.60;99.90;;;;;;5010594;28;20085;-65
2023/03/16 04:40:38;;;;;;;10.65;4.80;;;2.70;99.90;;;;;;5019827;28;20064;-64
2023/03/16 04:43:03;;;;;;;14.03;5.27;;;2.60;99.90;;;;;;5029791;28;20029;-64
2023/03/16 04:45:29;;;;;;;8.73;4.22;;;2.60;99.90;;;;;;5030069;28;20268;-65
2023/03/16 04:47:55;;;;;;;10.27;5.27;;;2.50;99.90;;;;;;5029919;28;20041;-64
2023/03/16 04:50:21;;;;;;;12.02;5.47;;;2.50;99.90;;;;;;5030184;28;20486;-65
2023/03/16 04:52:47;;;;;;;11.02;5.50;;;2.40;99.90;;;;;;5030238;28;20099;-65
2023/03/16 04:55:12;;;;;;;17.88;5.13;;;2.40;99.90;;;;;;5028723;28;20444;-64
2023/03/16 04:57:38;;;;;;;10.87;4.83;;;2.40;99.90;;;;;;5029311;28;20105;-64
2023/03/16 05:00:10;;;;;;;11.67;5.07;;;2.40;99.90;;;;;;5029735;28;20604;-63
2023/03/16 05:02:36;;;;;;;10.60;4.63;;;2.40;99.90;;;;;;5029763;28;20056;-65
2023/03/16 05:05:03;;;;;;;9.10;4.82;;;2.50;99.90;;;;;;5029291;28;20428;-65
2023/03/16 05:07:29;;;;;;;7.05;4.50;;;2.50;99.90;;;;;;5028218;28;20076;-65
2023/03/16 05:09:54;;;;;;;7.97;4.20;;;2.50;99.90;;;;;;5029488;28;20056;-65
2023/03/16 05:12:20;;;;;;;8.70;4.90;;;2.40;99.90;;;;;;5029360;28;20022;-65
2023/03/16 05:14:45;;;;;;;8.87;4.43;;;2.30;99.90;;;;;;5029461;28;20026;-66
2023/03/16 05:17:13;;;;;;;12.47;4.87;;;2.40;99.90;;;;;;5029602;28;20041;-66
2023/03/16 05:19:39;;;;;;;10.50;5.13;;;2.30;99.90;;;;;;5029853;28;20022;-63
2023/03/16 05:22:05;;;;;;;17.60;5.40;;;2.40;99.90;;;;;;5029517;28;20041;-64
2023/03/16 05:24:31;;;;;;;13.48;5.10;;;2.50;99.90;;;;;;5029634;28;20036;-65
2023/03/16 05:26:57;;;;;;;10.45;5.13;;;2.30;99.90;;;;;;5028207;28;20048;-64
2023/03/16 05:29:23;;;;;;;9.32;4.93;;;2.40;99.90;;;;;;5029383;28;20030;-64
2023/03/16 05:31:49;;;;;;;10.73;4.40;;;2.30;99.90;;;;;;5029251;28;20037;-63
2023/03/16 05:34:14;;;;;;;9.27;5.03;;;2.40;99.90;;;;;;5028957;28;20033;-64
2023/03/16 05:36:40;;;;;;;8.17;4.10;;;2.20;99.90;;;;;;5029751;28;20029;-65
2023/03/16 05:39:07;;;;;;;12.37;4.77;;;2.00;99.90;;;;;;5029128;28;20034;-64
2023/03/16 05:41:33;;;;;;;8.15;3.88;;;2.10;99.90;;;;;;5029076;28;20057;-64
2023/03/16 05:43:58;;;;;;;10.53;4.77;;;2.10;99.90;;;;;;5029035;28;20123;-62
2023/03/16 05:46:24;;;;;;;7.10;3.93;;;2.30;99.90;;;;;;5028887;28;20025;-65
2023/03/16 05:48:49;;;;;;;7.03;3.73;;;2.30;99.90;;;;;;5028813;28;20275;-63
2023/03/16 05:51:15;;;;;;;13.50;6.07;;;2.30;99.90;;;;;;5028588;28;20104;-65
2023/03/16 05:53:41;;;;;;;12.63;4.78;;;2.20;99.90;;;;;;5028575;28;20057;-65
2023/03/16 05:56:07;;;;;;;11.80;4.63;;;2.30;99.90;;;;;;5028403;28;20060;-66
2023/03/16 05:58:32;;;;;;;15.90;4.20;;;2.30;99.90;;;;;;5024730;28;20106;-65
2023/03/16 06:01:00;;;;;;;12.32;3.85;;;2.40;99.90;;;;;;5025303;28;20080;-67
2023/03/16 06:03:26;;;;;;;13.27;4.53;;;2.40;99.90;;;;;;5026958;28;20026;-67
2023/03/16 06:05:52;;;;;;;10.60;4.47;;;2.50;99.90;;;;;;5023966;28;20034;-65
2023/03/16 06:08:18;;;;;;;13.75;3.85;;;2.50;99.90;;;;;;5026281;28;20033;-64
2023/03/16 06:10:46;;;;;;;11.10;4.43;;;2.50;99.90;;;;;;5027396;28;20561;-67
2023/03/16 06:13:12;;;;;;;13.98;3.97;;;2.50;99.90;;;;;;5027256;28;20406;-64
2023/03/16 06:15:37;;;;;;;6.10;3.73;;;2.60;99.90;;;;;;5027188;28;20570;-65
2023/03/16 06:18:03;;;;;;;4.82;2.92;;;2.60;99.90;;;;;;5025358;28;20465;-64
2023/03/16 06:20:29;;;;;;;8.23;3.57;;;2.60;99.90;;;;;;5025378;28;20026;-65
2023/03/16 06:22:55;;;;;;;11.18;3.97;;;2.70;99.90;;;;;;5025310;28;20025;-63
2023/03/16 06:25:20;;;;;;;14.23;4.25;;;2.70;99.90;;;;;;5025677;28;20025;-64
2023/03/16 06:27:48;;;;;;;11.53;4.13;;;2.60;99.90;;;;;;5024619;28;20401;-65
2023/03/16 06:30:14;;;;;;;10.05;3.38;;;2.70;99.90;;;;;;5024785;28;20637;-65
2023/03/16 06:32:44;;;;;;;10.18;3.90;;;2.70;99.90;;;;;;5026555;28;20033;-64
2023/03/16 06:35:10;;;;;;;14.90;5.72;;;2.90;99.90;;;;;;5027106;28;20098;-64
2023/03/16 06:37:36;;;;;;;13.30;5.45;;;3.00;99.90;;;;;;5025899;28;20041;-64
2023/03/16 06:40:02;;;;;;;12.93;4.10;;;3.00;99.90;;;;;;5023624;28;20038;-64
2023/03/16 06:42:28;;;;;;;9.45;3.92;;;3.20;99.90;;;;;;5025784;28;20029;-65
2023/03/16 06:44:54;;;;;;;9.35;3.65;;;3.20;99.90;;;;;;5025221;28;20036;-65
2023/03/16 06:47:20;;;;;;;7.03;3.77;;;3.30;99.90;;;;;;5023728;28;20041;-65
2023/03/16 06:49:46;;;;;;;18.88;5.55;;;3.50;99.90;;;;;;5024566;28;20104;-65
2023/03/16 06:52:12;;;;;;;9.90;3.83;;;3.50;99.90;;;;;;5024263;28;20482;-65
2023/03/16 06:54:39;;;;;;;13.32;2.95;;;3.60;99.90;;;;;;5025597;28;20402;-64
2023/03/16 06:57:06;;;;;;;7.97;3.30;;;3.70;99.90;;;;;;5022239;28;20033;-64
2023/03/16 06:59:31;;;;;;;4.18;2.50;;;3.90;99.90;;;;;;5025946;28;20398;-65
2023/03/16 07:01:57;;;;;;;8.53;3.23;;;4.00;99.90;;;;;;5024112;28;20022;-65
2023/03/16 07:04:23;;;;;;;6.80;2.90;;;4.10;99.90;;;;;;5025204;28;20106;-64
2023/03/16 07:06:48;;;;;;;12.30;3.30;;;4.20;99.90;;;;;;5025856;28;20600;-64
2023/03/16 07:09:14;;;;;;;10.07;3.03;;;4.50;99.90;;;;;;5025776;28;20280;-65
2023/03/16 07:11:39;;;;;;;11.33;2.93;;;5.50;99.70;;;;;;5025294;28;20021;-64
2023/03/16 07:14:06;;;;;;;8.77;3.73;;;6.80;97.00;;;;;;5022000;28;20021;-64
2023/03/16 07:16:32;;;;;;;7.68;2.92;;;8.20;94.10;;;;;;5021926;28;20550;-65
2023/03/16 07:18:57;;;;;;;8.35;3.22;;;9.70;90.00;;;;;;5024381;28;20041;-65
2023/03/16 07:21:23;;;;;;;15.63;4.27;;;9.40;87.70;;;;;;5025708;28;20417;-65
2023/03/16 07:23:50;;;;;;;4.67;2.90;;;9.80;86.50;;;;;;5025271;28;20582;-67
2023/03/16 07:26:16;;;;;;;5.53;2.85;;;10.70;84.10;;;;;;5022391;28;20027;-67
2023/03/16 07:28:41;;;;;;;4.68;2.28;;;11.50;81.00;;;;;;5023145;28;20041;-68
2023/03/16 07:31:08;;;;;;;5.83;2.30;;;12.10;75.60;;;;;;5025965;28;20036;-66
2023/03/16 07:33:35;;;;;;;4.90;2.33;;;12.30;73.30;;;;;;5026287;28;20038;-68
2023/03/16 07:36:04;;;;;;;7.20;2.72;;;13.40;69.90;;;;;;5026100;28;20037;-67
2023/03/16 07:38:31;;;;;;;6.18;2.63;;;12.80;69.40;;;;;;5024528;28;20041;-69
2023/03/16 07:40:57;;;;;;;3.83;2.83;;;12.50;70.40;;;;;;5026328;28;20096;-65
2023/03/16 07:43:23;;;;;;;6.80;3.15;;;12.40;71.20;;;;;;5025577;28;20535;-66
2023/03/16 07:45:50;;;;;;;7.00;2.47;;;12.60;70.80;;;;;;5026151;28;20041;-64
2023/03/16 07:48:16;;;;;;;9.57;2.40;;;12.00;72.80;;;;;;5025770;28;20033;-66
2023/03/16 07:50:42;;;;;;;7.95;2.35;;;11.60;75.70;;;;;;5025181;28;20037;-66
2023/03/16 07:53:09;;;;;;;5.82;2.38;;;11.90;73.30;;;;;;5025524;28;20033;-65
2023/03/16 07:55:35;;;;;;;8.35;2.92;;;13.40;70.80;;;;;;5024537;28;20096;-65
2023/03/16 07:58:01;;;;;;;;;;;14.00;66.80;;;;;;5023531;28;20467;-63
2023/03/16 08:00:27;;;;;;;4.18;2.15;;;14.90;66.10;;;;;;5025816;28;20385;-66
2023/03/16 08:02:55;;;;;;;5.23;2.40;;;15.40;63.90;;;;;;5022317;28;20034;-66
2023/03/16 08:05:20;;;;;;;2.70;1.70;;;16.30;62.60;;;;;;5024787;28;20052;-64
2023/03/16 08:07:46;;;;;;;3.37;2.30;;;15.80;63.40;;;;;;5024706;28;20060;-67
2023/03/16 08:10:12;;;;;;;3.70;2.00;;;15.80;60.30;;;;;;5025530;28;20034;-65
2023/03/16 08:12:38;;;;;;;7.90;2.03;;;16.00;60.70;;;;;;5025195;28;20033;-66
2023/03/16 08:15:04;;;;;;;6.20;2.93;;;16.50;59.00;;;;;;5025149;28;20653;-67
2023/03/16 08:17:30;;;;;;;5.82;2.03;;;16.80;58.80;;;;;;5023661;28;20413;-65
2023/03/16 08:19:56;;;;;;;9.00;2.40;;;17.40;57.20;;;;;;5021358;28;20022;-68
2023/03/16 08:22:22;;;;;;;4.33;2.23;;;16.70;55.20;;;;;;5024759;28;20414;-65
2023/03/16 08:24:49;;;;;;;3.78;2.00;;;19.60;57.60;;;;;;5029420;28;20024;-68
2023/03/16 08:27:15;;;;;;;4.57;2.05;;;20.20;50.60;;;;;;5037881;28;20041;-68
2023/03/16 08:29:41;;;;;;;8.60;3.80;;;20.50;49.80;;;;;;5029089;28;20033;-69
2023/03/16 08:32:06;;;;;;;3.20;2.08;;;20.90;50.60;;;;;;5027267;28;20807;-65
2023/03/16 08:34:32;;;;;;;6.20;1.53;;;21.00;47.60;;;;;;5028199;28;20049;-64
2023/03/16 08:36:58;;;;;;;3.23;1.67;;;22.20;49.70;;;;;;5023384;28;20036;-64
2023/03/16 08:39:24;;;;;;;;;;;22.70;45.80;;;;;;5027435;28;20095;-67
2023/03/16 08:41:51;;;;;;;1.67;1.17;;;21.10;44.60;;;;;;5027466;28;19913;-67
2023/03/16 08:44:16;;;;;;;2.55;1.45;;;19.50;46.40;;;;;;5028473;28;20033;-66
2023/03/16 08:46:43;;;;;;;3.42;1.48;;;20.20;48.30;;;;;;5029018;28;20049;-66
2023/03/16 08:49:09;;;;;;;3.33;1.90;;;21.00;47.50;;;;;;5028242;28;20064;-67
2023/03/16 08:51:35;;;;;;;4.13;1.58;;;18.20;48.40;;;;;;5027895;28;20029;-67
2023/03/16 08:54:01;;;;;;;6.35;1.70;;;18.80;50.40;;;;;;5028152;28;20041;-67
2023/03/16 08:56:29;;;;;;;5.27;1.90;;;17.30;51.10;;;;;;5028029;28;20045;-66
2023/03/16 08:58:56;;;;;;;8.30;1.90;;;17.20;51.50;;;;;;5024768;28;20039;-66
2023/03/16 09:01:22;;;;;;;3.55;1.80;;;16.40;51.70;;;;;;5026756;28;20084;-65
2023/03/16 09:03:50;;;;;;;3.20;1.52;;;15.50;56.90;;;;;;5027762;28;20021;-65
2023/03/16 09:06:16;;;;;;;7.85;1.88;;;15.20;56.00;;;;;;5027893;28;20075;-67
2023/03/16 09:08:44;;;;;;;4.25;1.10;;;15.00;56.60;;;;;;5027903;28;20037;-66
2023/03/16 09:11:13;;;;;;;9.10;1.88;;;15.30;57.50;;;;;;5027374;28;20029;-66
2023/03/16 09:13:39;;;;;;;9.75;1.58;;;15.40;54.30;;;;;;5028086;28;20033;-65
2023/03/16 09:16:05;;;;;;;;;;;15.50;53.30;;;;;;5027569;28;20493;-66
2023/03/16 09:18:32;;;;;;;3.83;1.27;;;15.80;55.30;;;;;;5027468;28;20391;-66
2023/03/16 09:21:03;;;;;;;3.15;1.50;;;17.50;51.80;;;;;;5026609;28;20081;-66
2023/03/16 09:23:30;;;;;;;3.00;1.33;;;17.70;51.40;;;;;;5025964;28;20037;-66
2023/03/16 09:25:58;;;;;;;3.45;1.30;;;18.10;48.80;;;;;;5027382;28;20036;-66
2023/03/16 09:28:26;;;;;;;6.45;1.23;;;17.20;50.20;;;;;;5026628;28;20467;-66
2023/03/16 09:30:55;;;;;;;5.97;1.77;;;16.90;51.30;;;;;;5027392;28;20041;-65
2023/03/16 09:33:23;;;;;;;3.10;1.55;;;16.40;51.30;;;;;;5026820;28;20528;-66
2023/03/16 09:35:49;;;;;;;3.42;1.67;;;16.80;51.10;;;;;;5023753;28;20036;-66
2023/03/16 09:38:16;;;;;;;5.97;1.45;;;16.60;50.00;;;;;;5025726;28;20156;-66
2023/03/16 09:40:43;;;;;;;5.95;1.35;;;15.90;51.90;;;;;;5022556;28;20528;-66
2023/03/16 09:43:24;;;;;;;2.75;1.33;;;15.60;51.60;;;;;;5024360;28;20033;-66
2023/03/16 09:46:14;;;;;;;1.77;1.17;;;15.90;51.50;;;;;;5023744;28;20052;-65
2023/03/16 09:48:40;;;;;;;3.28;1.40;;;16.20;53.80;;;;;;5026478;28;20033;-66
2023/03/16 09:51:19;;;;;;;1.98;1.10;;;15.40;53.00;;;;;;5018060;28;20571;-66
2023/03/16 09:53:46;;;;;;;3.35;1.50;;;15.40;52.00;;;;;;5026225;28;20037;-66
2023/03/16 09:56:29;;;;;;;2.33;1.30;;;15.40;53.20;;;;;;5026296;28;20541;-66
2023/03/16 09:58:56;;;;;;;3.25;1.30;;;15.20;55.00;;;;;;5024901;28;20045;-67
2023/03/16 10:01:33;;;;;;;3.75;1.45;;;15.60;54.00;;;;;;5026894;28;20032;-67
2023/03/16 10:04:14;;;;;;;2.35;1.48;;;15.00;53.30;;;;;;5025073;28;20048;-67
2023/03/16 10:06:54;;;;;;;3.47;1.50;;;14.80;55.60;;;;;;5024109;28;20268;-65
2023/03/16 10:09:37;;;;;;;4.15;1.55;;;14.80;55.10;;;;;;5014270;28;20086;-66
2023/03/16 10:12:05;;;;;;;2.70;1.23;;;15.20;55.20;;;;;;5024876;28;20121;-65
2023/03/16 10:14:36;;;;;;;2.65;1.30;;;15.20;56.10;;;;;;5026149;28;20502;-65
2023/03/16 10:17:14;;;;;;;2.45;1.25;;;15.20;56.80;;;;;;5024546;28;20765;-65
2023/03/16 10:19:42;;;;;;;3.35;1.20;;;15.40;54.40;;;;;;5029267;28;20033;-66
2023/03/16 10:22:21;;;;;;;5.25;1.20;;;15.80;56.70;;;;;;5023389;28;20140;-65
2023/03/16 10:25:11;;;;;;;1.67;1.00;;;15.80;53.50;;;;;;5025910;28;20080;-65
2023/03/16 10:27:39;;;;;;;2.63;1.17;;;15.70;52.40;;;;;;5025288;28;20037;-66
2023/03/16 10:30:29;;;;;;;2.78;1.17;;;15.80;49.80;;;;;;5026215;28;20038;-65
2023/03/16 10:32:59;;;;;;;2.65;1.08;;;16.00;52.60;;;;;;5026343;28;20455;-66
2023/03/16 10:35:43;;;;;;;2.22;1.00;;;16.10;53.90;;;;;;5023875;28;20029;-65
2023/03/16 10:38:45;;;;;;;3.10;1.13;;;16.10;52.80;;;;;;5025390;28;20045;-65
2023/03/16 10:41:17;;;;;;;2.38;1.08;;;15.90;51.90;;;;;;5020792;28;20516;-66
2023/03/16 10:44:06;;;;;;;2.50;1.13;;;15.80;50.30;;;;;;5025236;28;20178;-65
2023/03/16 10:46:47;;;;;;;2.35;1.35;;;15.70;50.80;;;;;;5022610;28;20044;-65
2023/03/16 10:49:32;;;;;;;2.42;1.13;;;15.80;51.80;;;;;;5024373;28;20072;-65
2023/03/16 10:52:03;;;;;;;2.67;1.08;;;15.70;51.10;;;;;;5023406;28;20030;-65
2023/03/16 10:54:38;;;;;;;4.38;1.10;;;15.70;51.80;;;;;;5022725;28;20413;-65
2023/03/16 10:57:25;;;;;;;8.20;1.38;;;15.60;51.80;;;;;;5023807;28;20397;-65
2023/03/16 10:59:53;;;;;;;3.38;1.30;;;15.90;54.30;;;;;;5020312;28;20061;-65
2023/03/16 11:02:31;;;;;;;3.45;1.23;;;16.10;54.50;;;;;;5023583;28;20080;-65
2023/03/16 11:04:57;;;;;;;4.50;1.30;;;16.20;52.30;;;;;;5024344;28;20040;-65
2023/03/16 11:07:24;;;;;;;4.10;1.90;;;16.30;53.50;;;;;;5020646;28;21896;-65
2023/03/16 11:09:54;;;;;;;2.88;1.40;;;16.10;53.10;;;;;;5023903;28;20120;-67
2023/03/16 11:12:24;;;;;;;3.72;1.38;;;15.90;52.40;;;;;;5025258;28;20021;-65
2023/03/16 11:14:50;;;;;;;4.85;1.50;;;16.00;51.90;;;;;;5025968;28;20037;-65
2023/03/16 11:17:38;;;;;;;4.90;1.92;;;15.80;50.00;;;;;;5025876;28;20083;-66
2023/03/16 11:20:22;;;;;;;2.53;1.52;;;15.80;52.00;;;;;;5013608;28;20124;-65
2023/03/16 11:22:48;;;;;;;4.40;1.02;;;15.70;52.50;;;;;;5020056;28;20084;-65
2023/03/16 11:25:20;;;;;;;4.07;1.50;;;15.80;51.90;;;;;;5025462;28;20033;-65
2023/03/16 11:28:02;;;;;;;9.93;1.30;;;15.90;52.20;;;;;;5024220;28;20336;-66
2023/03/16 11:30:34;;;;;;;10.40;0.93;;;16.00;51.10;;;;;;5025115;28;20029;-65
2023/03/16 11:33:00;;;;;;;3.55;2.08;;;15.90;49.80;;;;;;5032201;28;20523;-66
2023/03/16 11:35:32;;;;;;;3.28;1.10;;;15.80;50.60;;;;;;5024940;28;20956;-66
2023/03/16 11:38:09;;;;;;;4.75;0.88;;;15.70;50.80;;;;;;5023971;28;20041;-65
2023/03/16 11:40:47;;;;;;;7.57;1.25;;;15.90;50.20;;;;;;5025333;28;20086;-65
2023/03/16 11:43:28;;;;;;;1.80;0.95;;;15.80;49.90;;;;;;5025137;28;20166;-65
2023/03/16 11:46:26;;;;;;;4.95;1.85;;;15.80;51.60;;;;;;5024665;28;20041;-66
2023/03/16 11:49:00;;;;;;;3.50;0.95;;;15.80;50.80;;;;;;5025720;28;20067;-65
2023/03/16 11:51:55;;;;;;;3.38;1.00;;;15.90;49.40;;;;;;5025250;28;20080;-66
2023/03/16 11:55:10;;;;;;;4.38;1.10;;;16.00;49.80;;;;;;5024297;28;20046;-65
2023/03/16 11:57:59;;;;;;;6.47;1.35;;;16.00;50.30;;;;;;4984332;28;20519;-64
2023/03/16 12:00:55;;;;;;;5.75;1.40;;;16.10;51.00;;;;;;4983210;28;20101;-65
2023/03/16 12:03:43;;;;;;;2.55;1.10;;;16.20;49.60;;;;;;5017989;28;20046;-65
2023/03/16 12:06:23;;;;;;;4.00;1.13;;;16.30;50.30;;;;;;5028406;28;20449;-64
2023/03/16 12:08:56;;;;;;;5.03;1.20;;;16.40;49.80;;;;;;5029127;28;20064;-65
2023/03/16 12:11:50;;;;;;;2.28;0.95;;;16.40;50.70;;;;;;5028153;28;20137;-66
2023/03/16 12:14:40;;;;;;;8.23;1.17;;;16.60;52.30;;;;;;5026561;28;20032;-66
2023/03/16 12:17:13;;;;;;;1.42;0.93;;;16.60;52.40;;;;;;5027080;28;20701;-66
2023/03/16 12:19:53;;;;;;;2.72;1.00;;;16.70;52.20;;;;;;5024465;28;20029;-65
2023/03/16 12:22:23;;;;;;;4.38;1.10;;;16.80;53.40;;;;;;5027888;28;20076;-66
2023/03/16 12:24:49;;;;;;;2.38;1.05;;;16.90;53.50;;;;;;5028706;28;20030;-65
2023/03/16 12:27:25;;;;;;;4.20;1.13;;;16.90;52.30;;;;;;5028623;28;20030;-66
2023/03/16 12:30:34;;;;;;;7.18;1.40;;;16.70;50.20;;;;;;5024577;28;20041;-66
2023/03/16 12:33:23;;;;;;;3.67;1.25;;;16.60;52.20;;;;;;5027856;28;20057;-66
2023/03/16 12:35:58;;;;;;;3.90;0.80;;;16.80;53.90;;;;;;5018568;28;20046;-65
2023/03/16 12:38:49;;;;;;;5.40;1.00;;;16.80;50.20;;;;;;5026777;28;20034;-65
2023/03/16 12:41:23;;;;;;;2.72;1.25;;;16.70;52.30;;;;;;5027467;28;20075;-66
2023/03/16 12:44:27;;;;;;;3.40;0.80;;;16.60;51.60;;;;;;5028197;28;20115;-65
2023/03/16 12:47:11;;;;;;;6.75;1.08;;;16.70;51.00;;;;;;5017089;28;20184;-64
2023/03/16 12:49:38;;;;;;;3.95;1.42;;;16.70;52.50;;;;;;5025334;28;20091;-65
2023/03/16 12:52:09;;;;;;;4.45;1.30;;;16.70;52.30;;;;;;5027443;28;20049;-65
2023/03/16 12:54:34;;;;;;;3.72;0.80;;;16.80;54.10;;;;;;5027077;28;20025;-65
2023/03/16 12:57:13;;;;;;;2.07;1.20;;;16.80;52.10;;;;;;5029121;28;20095;-65
2023/03/16 12:59:41;;;;;;;4.70;1.17;;;16.70;50.70;;;;;;5028336;28;20068;-65
2023/03/16 13:02:18;;;;;;;2.78;1.08;;;16.70;52.20;;;;;;5027637;28;20484;-65
2023/03/16 13:04:47;;;;;;;3.03;1.20;;;16.80;54.10;;;;;;5026728;28;20022;-65